Time;durP1;ratioP1;P1;durP2;ratioP2;P2;SDS_P1;SDS_P2;PMS_P1;PMS_P2;Temp;Humidity;BMP_temperature;BMP_pressure;BME280_temperature;BME280_humidity;BME280_pressure;Samples;Min_cycle;Max_cycle;Signal;HPM_P1;HPM_P2
2021/03/27 00:01:50;;;;;;;5.50;4.37;;;;;;;1.47;100.00;96929.31;5096405;28;20205;-89
2021/03/27 00:04:22;;;;;;;5.90;5.17;;;;;;;1.43;100.00;96921.69;5096850;28;20235;-89
2021/03/27 00:06:53;;;;;;;6.73;5.03;;;;;;;1.53;100.00;96919.44;5096287;28;20217;-88
2021/03/27 00:09:35;;;;;;;5.73;5.13;;;;;;;1.75;100.00;96918.19;5096554;28;20263;-88
2021/03/27 00:12:07;;;;;;;11.30;7.97;;;;;;;1.89;100.00;96900.09;5096410;28;20223;-88
2021/03/27 00:14:41;;;;;;;10.03;8.47;;;;;;;1.88;100.00;96878.53;5096317;28;20242;-88
2021/03/27 00:17:12;;;;;;;10.03;6.73;;;;;;;1.73;100.00;96892.34;5096314;28;20180;-89
2021/03/27 00:19:43;;;;;;;9.50;6.70;;;;;;;1.86;100.00;96874.34;5096605;28;20627;-89
2021/03/27 00:22:19;;;;;;;6.20;5.60;;;;;;;1.77;100.00;96855.00;5096273;28;20201;-88
2021/03/27 00:25:01;;;;;;;6.73;5.40;;;;;;;1.71;100.00;96844.16;5096155;28;20184;-88
2021/03/27 00:27:34;;;;;;;7.33;4.77;;;;;;;1.69;100.00;96839.03;5096218;28;20661;-88
2021/03/27 00:30:06;;;;;;;7.73;5.13;;;;;;;1.47;100.00;96826.53;5096128;28;20786;-88
2021/03/27 00:32:37;;;;;;;4.93;4.20;;;;;;;1.46;100.00;96839.56;5096118;28;20229;-88
2021/03/27 00:35:09;;;;;;;5.93;4.97;;;;;;;1.50;100.00;96841.06;5096079;28;20249;-88
2021/03/27 00:37:36;;;;;;;4.17;3.80;;;;;;;1.12;100.00;96824.19;5095922;28;20272;-88
2021/03/27 00:40:09;;;;;;;6.27;3.97;;;;;;;1.01;100.00;96836.91;5096010;28;20211;-88
2021/03/27 00:42:38;;;;;;;7.20;3.63;;;;;;;1.25;100.00;96858.00;5096071;28;20240;-87
2021/03/27 00:45:11;;;;;;;5.90;3.93;;;;;;;1.04;100.00;96848.81;5095872;28;20232;-88
2021/03/27 00:47:44;;;;;;;6.17;3.70;;;;;;;1.46;100.00;96855.13;5095812;28;20180;-88
2021/03/27 00:50:16;;;;;;;5.07;4.03;;;;;;;1.41;100.00;96819.91;5095829;28;20185;-88
2021/03/27 00:52:49;;;;;;;8.17;4.83;;;;;;;1.20;100.00;96777.16;5095503;28;20181;-89
2021/03/27 00:55:19;;;;;;;6.80;3.93;;;;;;;1.13;100.00;96775.84;5095704;28;20689;-88
2021/03/27 00:57:55;;;;;;;5.37;3.90;;;;;;;1.23;100.00;96774.38;5095716;28;20196;-87
2021/03/27 01:00:30;;;;;;;3.90;3.40;;;;;;;1.59;100.00;96770.53;5095844;28;20233;-88
2021/03/27 01:03:05;;;;;;;4.73;4.00;;;;;;;1.63;100.00;96774.66;5095298;28;20243;-88
2021/03/27 01:05:34;;;;;;;5.40;4.47;;;;;;;1.32;100.00;96763.50;5095368;28;20306;-88
2021/03/27 01:08:03;;;;;;;5.37;4.30;;;;;;;1.33;100.00;96770.34;5095449;28;20649;-88
2021/03/27 01:10:35;;;;;;;5.70;4.33;;;;;;;1.61;100.00;96779.91;5095228;28;20231;-88
2021/03/27 01:13:19;;;;;;;4.63;4.10;;;;;;;1.48;100.00;96771.19;5095480;28;20279;-88
2021/03/27 01:15:51;;;;;;;5.47;3.70;;;;;;;1.48;100.00;96771.19;5095395;28;20234;-88
2021/03/27 01:18:23;;;;;;;6.40;4.37;;;;;;;1.60;100.00;96773.06;5095446;28;20619;-89
2021/03/27 01:20:56;;;;;;;4.77;4.23;;;;;;;1.61;100.00;96761.78;5095283;28;20657;-87
2021/03/27 01:23:24;;;;;;;5.47;4.27;;;;;;;1.21;100.00;96744.31;5095168;28;20247;-89
2021/03/27 01:25:57;;;;;;;5.93;4.40;;;;;;;1.38;100.00;96762.28;5095373;28;20196;-88
2021/03/27 01:28:30;;;;;;;6.00;3.70;;;;;;;1.28;100.00;96758.56;5095068;28;20181;-88
2021/03/27 01:31:07;;;;;;;4.93;3.97;;;;;;;1.34;100.00;96766.81;5094765;28;20220;-89
2021/03/27 01:33:39;;;;;;;5.03;4.23;;;;;;;1.45;100.00;96755.00;5094937;28;20267;-88
2021/03/27 01:36:11;;;;;;;5.20;4.47;;;;;;;1.54;100.00;96742.34;5094791;28;20228;-88
2021/03/27 01:38:44;;;;;;;9.73;6.77;;;;;;;1.50;100.00;96720.13;5094995;28;20190;-88
2021/03/27 01:41:19;;;;;;;7.13;4.77;;;;;;;1.31;100.00;96704.00;5095230;28;20181;-88
2021/03/27 01:43:58;;;;;;;6.80;5.37;;;;;;;1.35;100.00;96716.72;5095038;28;20180;-88
2021/03/27 01:46:35;;;;;;;5.10;4.67;;;;;;;1.38;100.00;96721.69;5094591;28;20271;-88
2021/03/27 01:49:26;;;;;;;5.27;4.57;;;;;;;1.31;100.00;96706.59;5094833;28;20180;-87
2021/03/27 01:52:11;;;;;;;4.27;3.87;;;;;;;0.94;100.00;96709.59;5094509;28;20237;-88
2021/03/27 01:54:47;;;;;;;9.20;5.60;;;;;;;1.16;100.00;96735.06;5094508;28;20180;-88
2021/03/27 01:57:23;;;;;;;6.53;4.47;;;;;;;1.13;100.00;96724.06;5094396;28;20184;-88
2021/03/27 01:59:53;;;;;;;5.47;4.83;;;;;;;1.29;100.00;96711.88;5093966;28;20224;-88
2021/03/27 02:02:25;;;;;;;8.50;5.57;;;;;;;1.25;100.00;96673.28;5094033;28;20312;-88
2021/03/27 02:05:01;;;;;;;4.80;4.03;;;;;;;1.25;100.00;96666.38;5094216;28;20307;-87
2021/03/27 02:07:40;;;;;;;6.93;4.03;;;;;;;1.27;100.00;96640.38;5094159;28;20649;-87
2021/03/27 02:10:12;;;;;;;4.83;4.00;;;;;;;1.23;100.00;96636.31;5094349;28;20194;-87
2021/03/27 02:12:55;;;;;;;7.07;5.30;;;;;;;1.18;100.00;96628.84;5094088;28;20257;-87
2021/03/27 02:15:32;;;;;;;6.77;4.73;;;;;;;1.05;100.00;96618.38;5094100;28;20195;-87
2021/03/27 02:18:03;;;;;;;7.40;5.23;;;;;;;1.21;100.00;96610.50;5093659;28;20191;-87
2021/03/27 02:20:55;;;;;;;5.17;4.67;;;;;;;1.28;100.00;96587.66;5094132;28;20616;-87
2021/03/27 02:23:28;;;;;;;6.07;4.70;;;;;;;1.25;100.00;96585.25;5093687;28;20767;-87
2021/03/27 02:26:10;;;;;;;7.37;4.73;;;;;;;1.09;100.00;96573.25;5093395;28;20188;-86
2021/03/27 02:29:27;;;;;;;5.90;4.30;;;;;;;0.99;100.00;96554.03;5093403;28;20267;-87
2021/03/27 02:32:02;;;;;;;5.43;4.27;;;;;;;0.88;100.00;96546.09;5067380;28;20196;-87
2021/03/27 02:34:38;;;;;;;7.67;4.30;;;;;;;0.58;100.00;96536.63;5093303;28;20321;-87
2021/03/27 02:37:08;;;;;;;6.47;4.97;;;;;;;0.89;100.00;96555.50;5093506;28;20191;-87
2021/03/27 02:39:43;;;;;;;4.67;4.27;;;;;;;0.97;100.00;96540.38;5093103;28;20660;-87
2021/03/27 02:42:27;;;;;;;5.40;4.13;;;;;;;1.01;100.00;96515.97;5093173;28;20211;-87
2021/03/27 02:45:02;;;;;;;5.50;4.57;;;;;;;1.15;100.00;96499.56;5093062;28;20189;-87
2021/03/27 02:47:50;;;;;;;9.40;4.60;;;;;;;1.00;100.00;96470.28;5093156;28;20195;-87
2021/03/27 02:50:35;;;;;;;5.27;4.50;;;;;;;0.83;100.00;96452.38;5092959;28;20188;-86
2021/03/27 02:53:16;;;;;;;4.93;3.97;;;;;;;0.81;100.00;96413.66;5092873;28;20216;-87
2021/03/27 02:55:58;;;;;;;6.53;4.77;;;;;;;0.84;100.00;96389.38;5093226;28;20273;-86
2021/03/27 02:58:29;;;;;;;6.43;4.63;;;;;;;0.81;100.00;96368.84;5092973;28;20188;-88
2021/03/27 03:01:09;;;;;;;4.90;4.43;;;;;;;0.85;100.00;96352.19;5092983;28;20653;-87
2021/03/27 03:03:58;;;;;;;8.07;6.10;;;;;;;0.68;100.00;96324.81;5092614;28;20295;-87
2021/03/27 03:06:32;;;;;;;6.87;4.77;;;;;;;0.51;100.00;96307.75;5093153;28;20535;-87
2021/03/27 03:09:13;;;;;;;6.33;5.53;;;;;;;0.78;100.00;96294.84;5093166;28;20709;-86
2021/03/27 03:12:11;;;;;;;6.80;5.90;;;;;;;0.75;100.00;96238.13;5092044;28;20189;-87
2021/03/27 03:14:44;;;;;;;5.63;4.73;;;;;;;0.54;100.00;96206.69;5092701;28;20291;-87
2021/03/27 03:17:19;;;;;;;7.63;6.07;;;;;;;0.44;100.00;96197.88;5092878;28;20254;-87
2021/03/27 03:19:55;;;;;;;6.33;4.70;;;;;;;0.66;100.00;96193.00;5092585;28;20188;-87
2021/03/27 03:22:31;;;;;;;9.63;5.73;;;;;;;0.93;100.00;96177.38;5092766;28;20207;-87
2021/03/27 03:25:00;;;;;;;5.63;4.63;;;;;;;0.79;100.00;96141.25;5093036;28;20255;-85
2021/03/27 03:27:39;;;;;;;8.20;4.97;;;;;;;0.68;100.00;96123.88;5092828;28;20279;-87
2021/03/27 03:30:26;;;;;;;6.47;4.97;;;;;;;0.75;100.00;96113.13;5092454;28;20188;-87
2021/03/27 03:33:10;;;;;;;5.90;4.60;;;;;;;0.62;100.00;96113.91;5092893;28;20298;-87
2021/03/27 03:35:44;;;;;;;8.07;5.83;;;;;;;0.41;100.00;96108.41;5092263;28;20664;-87
2021/03/27 03:38:24;;;;;;;6.00;5.37;;;;;;;0.23;100.00;96107.03;5092873;28;20188;-88
2021/03/27 03:41:10;;;;;;;6.53;5.33;;;;;;;0.33;100.00;96109.84;5092470;28;20197;-87
2021/03/27 03:43:48;;;;;;;10.63;5.37;;;;;;;0.57;100.00;96113.41;5092341;28;20216;-87
2021/03/27 03:46:25;;;;;;;6.33;4.73;;;;;;;0.68;100.00;96103.16;5092258;28;20718;-86
2021/03/27 03:49:06;;;;;;;5.20;4.63;;;;;;;0.51;100.00;96089.72;5092488;28;20191;-87
2021/03/27 03:51:51;;;;;;;5.23;4.50;;;;;;;0.29;100.00;96085.13;5092633;28;20196;-87
2021/03/27 03:54:25;;;;;;;5.53;4.70;;;;;;;0.33;100.00;96096.91;5092922;28;20212;-87
2021/03/27 03:57:01;;;;;;;5.83;4.77;;;;;;;0.41;100.00;96094.66;5092221;28;20271;-88
2021/03/27 03:59:37;;;;;;;6.50;4.90;;;;;;;0.27;100.00;96087.78;5092287;28;20192;-86
2021/03/27 04:02:12;;;;;;;9.37;5.13;;;;;;;0.20;100.00;96089.13;5091706;28;20215;-86
2021/03/27 04:04:44;;;;;;;7.00;4.77;;;;;;;0.19;100.00;96095.22;5091542;28;20220;-86
2021/03/27 04:07:18;;;;;;;6.50;5.60;;;;;;;0.14;100.00;96098.13;5091903;28;20228;-86
2021/03/27 04:09:52;;;;;;;7.20;5.07;;;;;;;0.21;100.00;96096.78;5091794;28;20185;-86
2021/03/27 04:12:25;;;;;;;8.87;6.03;;;;;;;0.65;100.00;96103.38;5092030;28;20279;-86
2021/03/27 04:15:13;;;;;;;12.53;11.23;;;;;;;0.88;100.00;96081.16;5092202;28;20173;-86
2021/03/27 04:17:49;;;;;;;11.07;7.60;;;;;;;0.78;100.00;96053.41;5092412;28;20211;-87
2021/03/27 04:20:22;;;;;;;11.30;8.13;;;;;;;0.71;100.00;96035.72;5092517;28;20630;-87
2021/03/27 04:22:57;;;;;;;19.73;13.73;;;;;;;0.52;100.00;96055.16;5093936;28;20204;-87
2021/03/27 04:25:34;;;;;;;22.07;15.10;;;;;;;0.49;100.00;96073.47;5096368;28;20618;-87
2021/03/27 04:28:11;;;;;;;22.60;17.97;;;;;;;0.42;100.00;96076.47;5095841;28;20180;-87
2021/03/27 04:30:51;;;;;;;17.53;15.00;;;;;;;0.57;100.00;96064.28;5095787;28;20230;-87
2021/03/27 04:33:38;;;;;;;17.43;12.63;;;;;;;0.76;100.00;96066.44;5095501;28;20188;-86
2021/03/27 04:36:11;;;;;;;17.77;13.80;;;;;;;0.74;100.00;96049.38;5095640;28;20187;-87
2021/03/27 04:38:44;;;;;;;27.97;20.97;;;;;;;0.78;100.00;96024.97;5095461;28;20641;-86
2021/03/27 04:41:24;;;;;;;29.23;19.47;;;;;;;0.71;100.00;96025.38;5095755;28;20192;-86
2021/03/27 04:43:57;;;;;;;34.67;21.77;;;;;;;0.56;100.00;96039.34;5095243;28;20208;-86
2021/03/27 04:46:31;;;;;;;26.00;18.67;;;;;;;0.44;100.00;96058.25;5095640;28;20195;-87
2021/03/27 04:49:09;;;;;;;22.73;16.30;;;;;;;0.64;100.00;96093.13;5095239;28;20250;-87
2021/03/27 04:51:51;;;;;;;21.13;13.33;;;;;;;0.37;100.00;96100.97;5095543;28;20222;-86
2021/03/27 04:54:33;;;;;;;20.37;11.00;;;;;;;0.62;100.00;96116.50;5095243;28;20195;-87
2021/03/27 04:57:14;;;;;;;20.00;15.17;;;;;;;0.81;100.00;96094.59;5095102;28;20275;-87
2021/03/27 04:59:59;;;;;;;19.80;12.20;;;;;;;0.76;100.00;96073.38;5095280;28;20189;-87
2021/03/27 05:02:37;;;;;;;16.73;14.60;;;;;;;0.67;100.00;96057.56;5094841;28;20205;-87
2021/03/27 05:05:13;;;;;;;14.07;11.57;;;;;;;0.65;100.00;96045.66;5095143;28;20234;-87
2021/03/27 05:07:48;;;;;;;13.27;9.80;;;;;;;0.57;100.00;96063.44;5095419;28;20187;-88
2021/03/27 05:10:25;;;;;;;16.80;12.70;;;;;;;0.54;100.00;96079.16;5095597;28;20273;-87
2021/03/27 05:13:13;;;;;;;14.53;12.37;;;;;;;0.60;100.00;96089.94;5095242;28;20237;-88
2021/03/27 05:15:47;;;;;;;13.37;9.07;;;;;;;0.78;100.00;96097.41;5094931;28;20267;-88
2021/03/27 05:18:33;;;;;;;12.83;9.80;;;;;;;0.79;100.00;96104.22;5094910;28;20179;-87
2021/03/27 05:21:09;;;;;;;13.67;11.53;;;;;;;0.67;100.00;96086.00;5095094;28;20559;-87
2021/03/27 05:23:49;;;;;;;18.97;13.60;;;;;;;0.83;100.00;96091.00;5094654;28;20295;-88
2021/03/27 05:26:27;;;;;;;20.10;13.87;;;;;;;0.92;100.00;96082.59;5094817;28;20184;-87
2021/03/27 05:29:12;;;;;;;31.67;21.80;;;;;;;0.75;100.00;96097.59;5094610;28;20230;-87
2021/03/27 05:31:50;;;;;;;98.23;52.57;;;;;;;0.77;100.00;96111.28;5094678;28;20239;-87
2021/03/27 05:34:26;;;;;;;123.70;62.97;;;;;;;0.73;100.00;96118.41;5093780;28;20286;-87
2021/03/27 05:37:31;;;;;;;79.90;45.73;;;;;;;0.82;100.00;96352.38;5094885;28;20188;-87
2021/03/27 05:40:12;;;;;;;62.90;38.63;;;;;;;0.91;100.00;96342.28;5079140;28;20195;-88
2021/03/27 05:43:11;;;;;;;66.13;46.33;;;;;;;1.05;100.00;96319.88;5095059;28;20204;-88
2021/03/27 05:46:13;;;;;;;62.87;42.70;;;;;;;1.49;100.00;96336.84;5095067;28;20188;-88
2021/03/27 05:49:29;;;;;;;46.40;32.80;;;;;;;1.48;100.00;96356.75;5071696;28;20684;-89
2021/03/27 05:52:21;;;;;;;28.57;22.00;;;;;;;1.61;100.00;96336.88;5094402;28;20749;-88
2021/03/27 05:55:33;;;;;;;27.73;18.47;;;;;;;1.69;100.00;96304.44;5086201;28;20204;-88
2021/03/27 05:58:27;;;;;;;25.47;14.77;;;;;;;1.84;100.00;96275.75;5032508;28;20199;-87
2021/03/27 06:01:01;;;;;;;20.33;14.37;;;;;;;2.16;100.00;96248.53;5091293;28;20205;-86
2021/03/27 06:04:04;;;;;;;21.37;15.20;;;;;;;2.40;100.00;96220.84;5093470;28;20779;-87
2021/03/27 06:06:51;;;;;;;18.83;14.17;;;;;;;2.71;100.00;96192.69;5083794;28;20196;-87
2021/03/27 06:09:58;;;;;;;21.57;12.50;;;;;;;2.92;100.00;96164.34;5093625;28;20196;-87
2021/03/27 06:12:58;;;;;;;15.77;11.70;;;;;;;3.22;100.00;96109.25;5031219;28;20293;-86
2021/03/27 06:16:16;;;;;;;14.07;11.93;;;;;;;3.39;100.00;96069.00;5092715;28;20211;-86
2021/03/27 06:19:15;;;;;;;12.97;10.40;;;;;;;3.55;100.00;96039.09;5093495;28;20272;-87
2021/03/27 06:21:53;;;;;;;14.23;9.47;;;;;;;3.82;100.00;96035.25;5093460;28;20241;-86
2021/03/27 06:24:50;;;;;;;14.03;10.57;;;;;;;4.01;100.00;96017.22;5093960;28;20614;-86
2021/03/27 06:27:51;;;;;;;11.97;7.27;;;;;;;4.12;100.00;95986.91;5081054;28;20272;-87
2021/03/27 06:30:58;;;;;;;7.07;5.60;;;;;;;4.40;100.00;95962.03;5093646;28;20633;-87
2021/03/27 06:33:52;;;;;;;7.70;5.77;;;;;;;4.62;100.00;95954.09;5095472;28;20271;-87
2021/03/27 06:36:54;;;;;;;6.60;5.80;;;;;;;4.76;100.00;95947.72;5093681;28;20192;-86
2021/03/27 06:39:38;;;;;;;11.90;8.40;;;;;;;4.97;100.00;95939.84;5093049;28;20241;-86
2021/03/27 06:42:33;;;;;;;9.60;7.20;;;;;;;5.08;100.00;95938.91;5092931;28;20212;-86
2021/03/27 06:45:33;;;;;;;8.33;5.47;;;;;;;5.45;100.00;95918.28;5066711;28;20227;-87
2021/03/27 06:48:40;;;;;;;6.80;6.10;;;;;;;5.58;100.00;95905.81;5062052;28;20629;-86
2021/03/27 06:51:43;;;;;;;7.40;5.97;;;;;;;5.82;100.00;95894.97;5092663;28;20228;-86
2021/03/27 06:54:26;;;;;;;7.33;5.33;;;;;;;6.11;100.00;95873.28;5068586;28;20252;-86
2021/03/27 06:57:04;;;;;;;6.90;5.27;;;;;;;6.12;100.00;95864.47;5092539;28;20630;-85
2021/03/27 07:00:05;;;;;;;9.07;5.00;;;;;;;6.31;100.00;95851.38;5092827;28;20228;-86
2021/03/27 07:03:04;;;;;;;7.57;6.07;;;;;;;6.67;100.00;95854.94;5092209;28;20223;-86
2021/03/27 07:06:16;;;;;;;7.27;5.77;;;;;;;7.05;100.00;95854.88;5066789;28;20674;-86
2021/03/27 07:08:56;;;;;;;6.63;4.87;;;;;;;7.29;100.00;95855.13;5076716;28;20196;-85
2021/03/27 07:11:43;;;;;;;12.17;6.47;;;;;;;7.52;100.00;95846.88;5092275;28;20181;-85
2021/03/27 07:14:46;;;;;;;8.20;5.70;;;;;;;7.96;100.00;95839.84;5092542;28;20180;-86
2021/03/27 07:17:48;;;;;;;8.17;6.73;;;;;;;8.14;100.00;95884.31;5092439;28;20199;-86
2021/03/27 07:20:47;;;;;;;6.10;5.40;;;;;;;8.44;100.00;95866.53;5092097;28;20271;-86
2021/03/27 07:23:47;;;;;;;5.23;4.73;;;;;;;8.77;100.00;95915.50;5091939;28;20204;-87
2021/03/27 07:26:46;;;;;;;4.13;3.73;;;;;;;9.08;100.00;95974.47;5082831;28;20206;-87
2021/03/27 07:29:46;;;;;;;5.40;4.70;;;;;;;9.33;100.00;95988.53;5086583;28;20196;-86
2021/03/27 07:32:30;;;;;;;6.90;4.73;;;;;;;9.69;100.00;96036.34;5091964;28;20337;-87
2021/03/27 07:35:23;;;;;;;8.20;5.63;;;;;;;9.91;100.00;96072.53;5091777;28;20271;-86
2021/03/27 07:38:20;;;;;;;6.23;4.40;;;;;;;10.27;100.00;96130.13;5091796;28;20185;-86
2021/03/27 07:41:02;;;;;;;5.70;5.20;;;;;;;10.38;100.00;96129.81;5066208;28;20249;-87
2021/03/27 07:43:53;;;;;;;9.93;5.47;;;;;;;10.75;100.00;96173.25;5091608;28;20207;-86
2021/03/27 07:46:45;;;;;;;8.57;5.73;;;;;;;10.56;100.00;96155.13;5091833;28;20184;-87
2021/03/27 07:49:27;;;;;;;6.60;5.40;;;;;;;10.62;100.00;96222.84;5091542;28;20273;-85
2021/03/27 07:52:28;;;;;;;7.93;5.17;;;;;;;11.12;100.00;96271.94;5091462;28;20181;-87
2021/03/27 07:55:35;;;;;;;6.17;5.40;;;;;;;11.59;100.00;96205.50;5091822;28;20275;-87
2021/03/27 07:58:25;;;;;;;8.00;5.70;;;;;;;11.58;100.00;96309.97;5093512;28;20231;-86
2021/03/27 08:01:22;;;;;;;9.27;7.67;;;;;;;11.58;100.00;96283.66;5095582;28;20676;-86
2021/03/27 08:04:20;;;;;;;5.33;4.83;;;;;;;11.59;100.00;96390.59;5095109;28;20263;-86
2021/03/27 08:06:53;;;;;;;7.13;6.43;;;;;;;12.13;100.00;96496.41;5091208;28;20283;-87
2021/03/27 08:10:07;;;;;;;6.80;5.77;;;;;;;12.64;100.00;96629.91;5095152;28;20188;-85
2021/03/27 08:13:18;;;;;;;10.43;7.87;;;;;;;12.68;100.00;96694.50;5090388;28;20188;-85
2021/03/27 08:16:05;;;;;;;9.07;6.67;;;;;;;12.62;100.00;96619.53;5053307;28;20209;-84
2021/03/27 08:19:09;;;;;;;8.33;6.77;;;;;;;12.89;100.00;96584.13;5095654;28;20271;-87
2021/03/27 08:21:42;;;;;;;8.30;6.40;;;;;;;12.57;100.00;96672.75;5095874;28;20219;-87
2021/03/27 08:24:47;;;;;;;7.53;5.93;;;;;;;12.91;100.00;96734.31;5082136;28;20210;-87
2021/03/27 08:27:53;;;;;;;7.43;6.43;;;;;;;12.45;100.00;96799.75;5033234;28;20203;-87
2021/03/27 08:31:19;;;;;;;19.17;7.57;;;;;;;12.51;100.00;96828.94;5074830;28;20195;-82
2021/03/27 08:34:31;;;;;;;16.93;7.80;;;;;;;12.55;100.00;96864.56;5012617;28;20630;-82
2021/03/27 08:37:18;;;;;;;10.93;7.27;;;;;;;12.51;100.00;96828.94;5012957;28;20226;-82
2021/03/27 08:40:23;;;;;;;10.87;6.73;;;;;;;12.24;100.00;96858.94;5074620;28;20192;-82
2021/03/27 08:43:31;;;;;;;11.47;7.70;;;;;;;12.78;100.00;96920.25;5054202;28;20304;-82
2021/03/27 08:46:44;;;;;;;12.60;8.07;;;;;;;13.20;100.00;96934.47;5074537;28;20193;-82
2021/03/27 08:49:43;;;;;;;13.67;7.60;;;;;;;13.12;100.00;96958.19;5046715;28;20246;-82
2021/03/27 08:52:39;;;;;;;13.20;7.90;;;;;;;13.05;100.00;97016.84;5073270;28;20281;-82
2021/03/27 08:55:29;;;;;;;9.53;7.13;;;;;;;12.96;100.00;97003.78;5069133;28;20208;-82
2021/03/27 08:58:44;;;;;;;8.83;7.47;;;;;;;13.56;100.00;97009.91;5074330;28;20220;-83
2021/03/27 09:02:04;;;;;;;9.80;7.90;;;;;;;12.91;100.00;97030.63;5074355;28;20197;-82
2021/03/27 09:04:52;;;;;;;11.07;8.00;;;;;;;13.18;100.00;97132.59;5012307;28;20681;-82
2021/03/27 09:07:39;;;;;;;11.20;9.27;;;;;;;13.99;100.00;97060.94;5012376;28;20278;-82
2021/03/27 09:10:49;;;;;;;12.37;11.07;;;;;;;13.71;100.00;97046.28;5010709;28;20716;-82
2021/03/27 09:13:54;;;;;;;10.17;7.33;;;;;;;14.21;100.00;97056.03;5012202;28;20240;-82
2021/03/27 09:16:57;;;;;;;9.00;7.23;;;;;;;13.93;100.00;97079.22;5002440;28;20289;-82
2021/03/27 09:20:14;;;;;;;8.13;7.00;;;;;;;14.20;100.00;97146.88;5021537;28;20200;-82
2021/03/27 09:23:12;;;;;;;14.47;7.90;;;;;;;14.22;100.00;97155.50;4991819;28;20219;-81
2021/03/27 09:26:15;;;;;;;8.37;7.23;;;;;;;13.64;100.00;97180.78;5012044;28;20284;-81
2021/03/27 09:28:56;;;;;;;8.60;7.70;;;;;;;14.26;100.00;97185.91;5011992;28;20195;-81
2021/03/27 09:32:01;;;;;;;8.17;6.10;;;;;;;14.61;100.00;97239.63;5012033;28;20240;-82
2021/03/27 09:34:51;;;;;;;10.63;7.83;;;;;;;15.01;100.00;97251.34;5026166;28;20241;-81
2021/03/27 09:37:35;;;;;;;7.20;6.13;;;;;;;15.05;100.00;97242.91;5073671;28;20657;-82
2021/03/27 09:40:14;;;;;;;9.70;7.93;;;;;;;14.85;100.00;97281.22;5073169;28;20223;-82
2021/03/27 09:42:56;;;;;;;7.03;6.27;;;;;;;15.22;100.00;97271.06;5072832;28;20234;-82
2021/03/27 09:45:34;;;;;;;8.63;7.13;;;;;;;14.69;100.00;97271.44;5073022;28;20276;-82
2021/03/27 09:48:28;;;;;;;8.03;6.70;;;;;;;15.82;100.00;97285.84;5073519;28;20268;-82
2021/03/27 09:51:07;;;;;;;8.97;7.90;;;;;;;15.77;100.00;97288.19;5073431;28;20189;-82
2021/03/27 09:53:47;;;;;;;7.70;6.90;;;;;;;14.88;100.00;97296.78;5073297;28;20273;-82
2021/03/27 09:56:25;;;;;;;10.50;9.40;;;;;;;15.20;100.00;97290.75;5073386;28;20213;-82
2021/03/27 09:59:24;;;;;;;10.07;9.13;;;;;;;14.48;100.00;97298.25;5072993;28;20684;-82
2021/03/27 10:01:55;;;;;;;10.03;8.53;;;;;;;14.95;100.00;97295.16;5073444;28;20652;-81
2021/03/27 10:04:44;;;;;;;11.73;7.83;;;;;;;15.59;100.00;97301.59;5072932;28;20735;-86
2021/03/27 10:07:27;;;;;;;10.53;9.47;;;;;;;15.75;100.00;97292.81;5071121;28;20247;-78
2021/03/27 10:10:07;;;;;;;7.93;6.80;;;;;;;15.14;100.00;97307.31;5072132;28;20181;-81
2021/03/27 10:12:44;;;;;;;10.73;7.17;;;;;;;15.14;100.00;97320.53;5072830;28;20231;-81
2021/03/27 10:15:20;;;;;;;8.93;7.03;;;;;;;14.85;100.00;97305.88;5072861;28;20250;-81
2021/03/27 10:17:55;;;;;;;10.07;7.97;;;;;;;15.19;100.00;97315.59;5072758;28;20274;-81
2021/03/27 10:20:31;;;;;;;10.87;8.80;;;;;;;15.72;100.00;97310.88;5072530;28;20189;-81
2021/03/27 10:23:03;;;;;;;10.60;7.93;;;;;;;15.53;100.00;97306.72;5072895;28;20573;-82
2021/03/27 10:25:36;;;;;;;8.93;6.60;;;;;;;15.16;100.00;97298.19;5072762;28;20571;-81
2021/03/27 10:28:19;;;;;;;8.20;6.37;;;;;;;15.90;100.00;97311.56;5072599;28;20189;-81
2021/03/27 10:30:55;;;;;;;8.10;7.30;;;;;;;15.28;100.00;97309.31;5079312;28;20201;-81
2021/03/27 10:33:37;;;;;;;7.10;6.40;;;;;;;15.40;100.00;97300.06;5072626;28;20181;-81
2021/03/27 10:36:28;;;;;;;9.03;7.60;;;;;;;14.77;100.00;97305.84;5072877;28;20267;-81
2021/03/27 10:39:13;;;;;;;9.03;6.80;;;;;;;15.18;100.00;97303.34;5072376;28;20185;-81
2021/03/27 10:41:59;;;;;;;12.27;6.90;;;;;;;15.04;100.00;97307.44;5072278;28;20711;-81
2021/03/27 10:44:36;;;;;;;9.77;8.23;;;;;;;15.60;100.00;97299.75;5072412;28;20208;-82
2021/03/27 10:47:06;;;;;;;7.90;7.10;;;;;;;15.26;100.00;97321.88;5072504;28;20268;-82
2021/03/27 10:49:50;;;;;;;7.50;6.40;;;;;;;14.77;100.00;97310.31;5072212;28;20212;-81
2021/03/27 10:52:52;;;;;;;9.40;6.53;;;;;;;15.25;100.00;97304.34;5072492;28;20182;-81
2021/03/27 10:55:56;;;;;;;8.77;7.17;;;;;;;14.93;100.00;97319.16;5068797;28;20283;-82
2021/03/27 10:58:52;;;;;;;7.13;6.40;;;;;;;15.58;100.00;97317.63;5072174;28;20181;-81
2021/03/27 11:01:52;;;;;;;9.10;6.33;;;;;;;15.34;100.00;97316.59;5066999;28;20207;-81
2021/03/27 11:04:43;;;;;;;7.77;6.77;;;;;;;15.80;100.00;97316.19;5072384;28;20229;-81
2021/03/27 11:07:29;;;;;;;10.20;7.10;;;;;;;15.57;100.00;97306.19;5071667;28;20197;-82
2021/03/27 11:10:22;;;;;;;8.50;6.97;;;;;;;15.22;100.00;97308.13;5072461;28;20265;-81
2021/03/27 11:13:27;;;;;;;20.33;14.67;;;;;;;15.79;100.00;97302.09;5063345;28;20197;-82
2021/03/27 11:16:28;;;;;;;8.17;7.17;;;;;;;15.14;100.00;97308.13;5071922;28;20197;-82
2021/03/27 11:19:11;;;;;;;7.00;6.23;;;;;;;16.02;100.00;97296.13;5071747;28;20185;-82
2021/03/27 11:22:14;;;;;;;11.10;7.97;;;;;;;15.05;100.00;97306.44;5070650;28;20184;-81
2021/03/27 11:25:18;;;;;;;15.27;8.77;;;;;;;15.08;100.00;97305.31;5071608;28;20189;-82
2021/03/27 11:28:07;;;;;;;13.80;10.67;;;;;;;14.77;100.00;97311.16;5071910;28;20573;-82
2021/03/27 11:30:41;;;;;;;11.00;8.60;;;;;;;15.72;100.00;97295.78;5071833;28;20272;-81
2021/03/27 11:33:24;;;;;;;9.87;6.37;;;;;;;15.14;100.00;97309.97;5070997;28;20323;-82
2021/03/27 11:36:04;;;;;;;25.30;12.00;;;;;;;15.22;100.00;97299.38;5071691;28;20188;-82
2021/03/27 11:38:38;;;;;;;17.33;13.47;;;;;;;15.63;100.00;97297.59;5072040;28;20560;-81
2021/03/27 11:41:11;;;;;;;16.67;10.47;;;;;;;15.99;100.00;97294.63;5071744;28;20216;-82
2021/03/27 11:43:59;;;;;;;16.47;10.90;;;;;;;15.25;100.00;97299.06;5071589;28;20251;-82
2021/03/27 11:46:30;;;;;;;12.33;10.50;;;;;;;15.34;100.00;97297.22;5071758;28;20182;-82
2021/03/27 11:49:09;;;;;;;14.33;9.60;;;;;;;15.40;100.00;97297.41;5071686;28;20224;-81
2021/03/27 11:51:42;;;;;;;8.33;6.73;;;;;;;15.85;100.00;97285.53;5071663;28;20666;-81
2021/03/27 11:54:22;;;;;;;9.13;7.53;;;;;;;15.95;100.00;97288.00;5071523;28;20188;-82
2021/03/27 11:57:00;;;;;;;7.33;6.63;;;;;;;15.81;100.00;97294.81;5071935;28;20311;-82
2021/03/27 12:02:43;;;;;;;7.77;6.73;;;;;;;15.73;100.00;97281.56;5071664;28;20173;-82
2021/03/27 12:05:16;;;;;;;10.07;6.67;;;;;;;15.21;100.00;97277.38;5071184;28;20295;-82
2021/03/27 12:07:56;;;;;;;5.97;5.37;;;;;;;15.36;100.00;97282.84;5071863;28;20632;-82
2021/03/27 12:10:35;;;;;;;6.10;5.50;;;;;;;15.33;100.00;97280.50;5071519;28;20185;-82
2021/03/27 12:13:09;;;;;;;9.83;7.37;;;;;;;15.15;100.00;97283.31;5071059;28;20630;-81
2021/03/27 12:15:42;;;;;;;9.37;8.23;;;;;;;15.40;100.00;97275.38;5071439;28;20182;-82
2021/03/27 12:18:21;;;;;;;7.23;5.40;;;;;;;15.63;100.00;97263.16;5071385;28;20638;-82
2021/03/27 12:21:04;;;;;;;8.07;6.40;;;;;;;16.00;100.00;97271.59;5071664;28;20189;-82
2021/03/27 12:23:37;;;;;;;7.20;6.03;;;;;;;15.95;100.00;97266.81;5071009;28;20224;-82
2021/03/27 12:26:19;;;;;;;9.83;7.40;;;;;;;15.50;100.00;97262.00;5071639;28;20565;-82
2021/03/27 12:28:53;;;;;;;14.60;9.67;;;;;;;15.40;100.00;97262.97;5070761;28;20646;-81
2021/03/27 12:31:48;;;;;;;7.83;6.53;;;;;;;16.08;100.00;97253.84;5076447;28;20228;-81
2021/03/27 12:34:27;;;;;;;5.97;5.23;;;;;;;15.52;100.00;97257.34;5091879;28;20321;-81
2021/03/27 12:37:10;;;;;;;7.10;5.43;;;;;;;15.41;100.00;97266.44;5091282;28;20224;-81
2021/03/27 12:39:45;;;;;;;6.30;5.33;;;;;;;15.49;100.00;97263.00;5091329;28;20184;-81
2021/03/27 12:42:16;;;;;;;13.07;10.60;;;;;;;15.79;100.00;97264.16;5091471;28;20562;-81
2021/03/27 12:44:46;;;;;;;7.30;6.20;;;;;;;15.54;100.00;97265.97;5094078;28;20665;-81
2021/03/27 12:47:41;;;;;;;6.70;5.50;;;;;;;15.27;100.00;97265.25;5095431;28;20188;-80
2021/03/27 12:50:39;;;;;;;8.83;7.07;;;;;;;15.41;100.00;97247.91;5094875;28;20245;-81